Time;durP1;ratioP1;P1;durP2;ratioP2;P2;SDS_P1;SDS_P2;PMS_P1;PMS_P2;Temp;Humidity;BMP_temperature;BMP_pressure;BME280_temperature;BME280_humidity;BME280_pressure;Samples;Min_cycle;Max_cycle;Signal;HPM_P1;HPM_P2
2022/10/30 00:02:07;;;;;;;20.07;9.33;;;;;;;10.68;78.57;100142.81;5090488;28;20195;-58
2022/10/30 00:04:34;;;;;;;11.97;8.63;;;;;;;10.66;78.65;100135.94;5090679;28;20264;-58
2022/10/30 00:07:00;;;;;;;11.93;8.83;;;;;;;10.65;78.28;100139.41;5090508;28;20586;-58
2022/10/30 00:09:27;;;;;;;11.63;8.70;;;;;;;10.53;79.22;100125.78;5090424;28;20286;-58
2022/10/30 00:11:54;;;;;;;12.10;9.13;;;;;;;10.48;79.90;100131.94;5090415;28;20203;-58
2022/10/30 00:14:22;;;;;;;12.40;8.80;;;;;;;10.50;79.85;100131.00;5090479;28;20203;-58
2022/10/30 00:16:49;;;;;;;12.53;8.63;;;;;;;10.54;79.49;100140.47;5090098;28;20203;-59
2022/10/30 00:19:16;;;;;;;15.57;8.73;;;;;;;10.48;80.18;100137.13;5090212;28;20209;-59
2022/10/30 00:21:43;;;;;;;16.17;8.77;;;;;;;10.36;80.71;100133.03;5090272;28;20199;-58
2022/10/30 00:24:11;;;;;;;14.70;8.83;;;;;;;10.40;80.97;100131.22;5090227;28;20606;-59
2022/10/30 00:26:38;;;;;;;10.53;8.93;;;;;;;10.30;81.44;100127.06;5090120;28;20596;-59
2022/10/30 00:29:05;;;;;;;12.53;8.27;;;;;;;10.28;81.73;100121.06;5090223;28;20219;-58
2022/10/30 00:31:33;;;;;;;12.33;8.93;;;;;;;10.21;82.10;100119.47;5090281;28;20272;-58
2022/10/30 00:34:00;;;;;;;10.50;8.80;;;;;;;10.27;82.31;100122.78;5089939;28;20199;-58
2022/10/30 00:36:26;;;;;;;10.00;7.90;;;;;;;10.23;82.42;100120.28;5089979;28;20205;-58
2022/10/30 00:38:53;;;;;;;10.90;8.17;;;;;;;10.22;82.50;100109.06;5089778;28;20226;-57
2022/10/30 00:41:22;;;;;;;18.33;8.57;;;;;;;10.15;83.12;100100.50;5090207;28;20569;-58
2022/10/30 00:43:49;;;;;;;13.20;8.13;;;;;;;10.12;82.97;100097.97;5090024;28;20682;-58
2022/10/30 00:46:20;;;;;;;10.67;8.23;;;;;;;10.15;82.94;100107.44;5089709;28;20194;-58
2022/10/30 00:48:54;;;;;;;15.17;8.20;;;;;;;10.08;83.93;100109.25;5089819;28;20270;-58
2022/10/30 00:51:22;;;;;;;10.27;8.33;;;;;;;10.05;83.67;100106.72;5089923;28;20203;-59
2022/10/30 00:53:49;;;;;;;11.83;8.57;;;;;;;10.02;84.92;100103.34;5089534;28;20209;-58
2022/10/30 00:56:20;;;;;;;10.80;9.10;;;;;;;9.84;84.68;100071.63;5089017;28;20199;-58
2022/10/30 00:58:51;;;;;;;14.77;8.63;;;;;;;10.09;84.51;100103.19;5089634;28;20219;-58
2022/10/30 01:01:22;;;;;;;11.73;7.93;;;;;;;10.02;84.83;100105.94;5070295;28;20228;-57
2022/10/30 01:03:56;;;;;;;9.50;8.50;;;;;;;10.10;84.95;100104.06;5069274;28;20635;-58
2022/10/30 01:06:24;;;;;;;10.70;8.37;;;;;;;10.07;84.81;100097.19;5068967;28;20227;-58
2022/10/30 01:08:54;;;;;;;12.17;8.50;;;;;;;10.01;86.05;100099.88;5069752;28;20214;-58
2022/10/30 01:11:21;;;;;;;11.60;8.80;;;;;;;10.02;86.56;100101.59;5069824;28;20215;-57
2022/10/30 01:13:50;;;;;;;17.73;8.77;;;;;;;9.91;86.18;100085.38;5069390;28;20672;-57
2022/10/30 01:16:39;;;;;;;15.30;9.70;;;;;;;9.84;87.27;100089.78;5069281;28;20196;-57
2022/10/30 01:19:18;;;;;;;14.17;8.63;;;;;;;9.82;87.43;100086.34;5069154;28;20224;-58
2022/10/30 01:22:01;;;;;;;12.97;8.27;;;;;;;9.87;86.53;100086.28;5069332;28;20207;-59
2022/10/30 01:24:49;;;;;;;10.33;7.53;;;;;;;9.88;85.39;100084.56;5069408;28;20566;-58
2022/10/30 01:27:31;;;;;;;10.87;7.67;;;;;;;9.84;85.56;100075.97;5069474;28;20737;-58
2022/10/30 01:30:12;;;;;;;10.43;8.03;;;;;;;9.88;85.43;100076.78;5069383;28;20203;-58
2022/10/30 01:32:53;;;;;;;15.97;11.23;;;;;;;9.84;84.99;100066.44;5069359;28;20192;-58
2022/10/30 01:35:28;;;;;;;19.30;12.53;;;;;;;10.00;84.63;100082.63;5069004;28;20214;-58
2022/10/30 01:38:02;;;;;;;19.87;14.37;;;;;;;9.99;84.43;100086.09;5069106;28;20219;-58
2022/10/30 01:40:29;;;;;;;20.50;14.63;;;;;;;9.96;84.74;100078.34;5069123;28;20227;-59
2022/10/30 01:42:57;;;;;;;19.37;12.73;;;;;;;10.00;85.01;100076.56;5069287;28;20282;-57
2022/10/30 01:45:46;;;;;;;18.93;13.67;;;;;;;9.99;85.23;100080.03;5069021;28;20207;-58
2022/10/30 01:48:42;;;;;;;21.87;13.10;;;;;;;9.89;85.34;100081.94;5069186;28;20192;-58
2022/10/30 01:51:17;;;;;;;26.40;14.33;;;;;;;9.74;86.03;100053.66;5069071;28;20198;-59
2022/10/30 01:53:55;;;;;;;21.37;13.37;;;;;;;9.86;85.93;100061.25;5068840;28;20196;-58
2022/10/30 01:56:33;;;;;;;22.63;13.77;;;;;;;9.78;86.62;100053.59;5069004;28;20202;-58
2022/10/30 01:59:08;;;;;;;20.10;12.30;;;;;;;9.65;87.29;100051.25;5069014;28;20222;-58
2022/10/30 02:01:37;;;;;;;21.10;13.30;;;;;;;9.62;86.92;100054.72;5069157;28;20203;-58
2022/10/30 02:04:04;;;;;;;27.60;14.47;;;;;;;9.55;87.38;100036.72;5069015;28;20204;-57
2022/10/30 02:06:32;;;;;;;22.77;13.80;;;;;;;9.65;87.06;100049.50;5068906;28;20197;-57
2022/10/30 02:08:59;;;;;;;24.10;15.00;;;;;;;9.66;87.85;100042.59;5071715;28;20214;-59
2022/10/30 02:11:27;;;;;;;26.57;14.23;;;;;;;9.59;87.30;100017.66;5072742;28;20679;-58
2022/10/30 02:13:57;;;;;;;22.70;13.03;;;;;;;9.74;87.50;100046.75;5072402;28;20196;-58
2022/10/30 02:16:24;;;;;;;24.83;14.10;;;;;;;9.79;87.48;100041.50;5072447;28;20314;-58
2022/10/30 02:18:51;;;;;;;26.33;13.67;;;;;;;9.82;87.29;100033.66;5072117;28;20255;-58
2022/10/30 02:21:20;;;;;;;22.27;13.47;;;;;;;9.87;86.48;100036.19;5072216;28;20727;-57
2022/10/30 02:23:46;;;;;;;18.37;13.53;;;;;;;9.96;85.64;100044.63;5072371;28;20613;-57
2022/10/30 02:26:13;;;;;;;20.77;13.33;;;;;;;10.03;85.31;100038.47;5072172;28;20207;-56
2022/10/30 02:28:40;;;;;;;18.20;12.10;;;;;;;9.98;86.14;100036.84;5072209;28;20282;-57
2022/10/30 02:31:07;;;;;;;19.00;11.77;;;;;;;9.87;87.21;100033.56;5072099;28;20196;-59
2022/10/30 02:33:34;;;;;;;21.23;11.10;;;;;;;9.63;88.53;100032.25;5072184;28;20596;-59
2022/10/30 02:36:01;;;;;;;17.63;10.80;;;;;;;9.57;89.42;100027.19;5072536;28;20554;-59
2022/10/30 02:38:30;;;;;;;13.57;10.33;;;;;;;9.71;88.44;100030.38;5072007;28;20703;-58
2022/10/30 02:40:57;;;;;;;21.17;10.57;;;;;;;9.58;90.17;100027.16;5072067;28;20634;-58
2022/10/30 02:43:24;;;;;;;16.60;10.73;;;;;;;9.44;90.76;100027.38;5071846;28;20196;-58
2022/10/30 02:45:52;;;;;;;15.60;10.17;;;;;;;9.30;92.33;100018.97;5071784;28;20206;-58
2022/10/30 02:48:19;;;;;;;13.33;9.67;;;;;;;9.37;91.37;100024.91;5071649;28;20196;-58
2022/10/30 02:50:45;;;;;;;13.77;8.33;;;;;;;9.33;92.03;100031.88;5072072;28;20694;-58
2022/10/30 02:53:12;;;;;;;8.67;7.73;;;;;;;9.35;91.83;100030.13;5071827;28;20676;-58
2022/10/30 02:55:41;;;;;;;9.73;7.67;;;;;;;9.41;91.50;100035.19;5071752;28;20196;-59
2022/10/30 02:58:08;;;;;;;12.47;7.93;;;;;;;9.48;90.99;100035.94;5071555;28;20234;-59
2022/10/30 03:00:34;;;;;;;7.27;6.53;;;;;;;9.55;90.57;100028.94;5071715;28;20200;-58
2022/10/30 03:03:01;;;;;;;9.93;7.30;;;;;;;9.61;89.69;100034.00;5071377;28;20196;-58
2022/10/30 03:05:28;;;;;;;10.13;7.63;;;;;;;9.57;89.90;100037.56;5071482;28;20214;-59
2022/10/30 03:07:55;;;;;;;8.37;7.47;;;;;;;9.57;90.04;100040.16;5071555;28;20702;-57
2022/10/30 03:10:22;;;;;;;8.23;7.37;;;;;;;9.50;89.90;100028.16;5071519;28;20581;-59
2022/10/30 03:12:50;;;;;;;10.60;7.20;;;;;;;9.29;91.56;100025.03;5071414;28;20200;-57
2022/10/30 03:15:17;;;;;;;12.27;6.80;;;;;;;9.23;91.96;100022.56;5071281;28;20211;-58
2022/10/30 03:17:44;;;;;;;11.33;7.57;;;;;;;9.02;93.21;100013.38;5071411;28;20684;-57
2022/10/30 03:20:11;;;;;;;8.53;6.50;;;;;;;9.07;93.34;100023.63;5070304;28;20195;-59
2022/10/30 03:22:38;;;;;;;13.17;7.60;;;;;;;9.12;93.54;100029.63;5071515;28;20212;-57
2022/10/30 03:25:06;;;;;;;9.10;8.07;;;;;;;9.10;92.97;100033.97;5071360;28;20719;-58
2022/10/30 03:27:33;;;;;;;14.30;9.20;;;;;;;8.95;95.19;100034.16;5071162;28;20668;-59
2022/10/30 03:30:01;;;;;;;14.33;8.43;;;;;;;8.69;94.95;99993.97;5070727;28;20589;-59
2022/10/30 03:32:28;;;;;;;8.90;7.43;;;;;;;8.92;95.42;100032.47;5071175;28;20191;-57
2022/10/30 03:34:55;;;;;;;9.40;7.37;;;;;;;8.74;96.46;100030.16;5070965;28;20208;-57
2022/10/30 03:37:22;;;;;;;11.03;7.20;;;;;;;8.72;96.39;100030.16;5070833;28;20668;-58
2022/10/30 03:39:49;;;;;;;9.07;7.43;;;;;;;8.72;96.85;100039.66;5070311;28;20242;-57
2022/10/30 03:42:15;;;;;;;9.53;8.37;;;;;;;8.71;97.22;100038.78;5070538;28;20204;-58
2022/10/30 03:44:42;;;;;;;16.17;7.80;;;;;;;8.67;98.15;100036.28;5070856;28;20200;-58
2022/10/30 03:47:10;;;;;;;10.67;7.70;;;;;;;8.74;96.77;100032.72;5070895;28;20206;-58
2022/10/30 03:49:37;;;;;;;8.53;7.03;;;;;;;8.83;96.44;100027.44;5070970;28;20196;-58
2022/10/30 03:52:05;;;;;;;10.67;7.30;;;;;;;8.88;96.01;100032.56;5070445;28;20630;-57
2022/10/30 03:54:31;;;;;;;10.20;7.73;;;;;;;8.88;95.95;100036.00;5070687;28;20199;-56
2022/10/30 03:56:58;;;;;;;9.30;7.37;;;;;;;8.81;96.04;100039.53;5080429;28;20207;-57
2022/10/30 03:59:25;;;;;;;8.37;7.40;;;;;;;8.83;95.79;100037.78;5090484;28;20226;-57
2022/10/30 04:01:52;;;;;;;9.20;7.10;;;;;;;8.87;95.83;100043.78;5091060;28;20195;-58
2022/10/30 04:04:20;;;;;;;9.57;6.97;;;;;;;8.88;95.68;100038.59;5081272;28;20238;-58
2022/10/30 04:06:48;;;;;;;10.73;6.77;;;;;;;8.96;95.35;100043.66;5070087;28;20215;-56
2022/10/30 04:09:15;;;;;;;7.83;6.60;;;;;;;8.92;95.69;100053.19;5069333;28;20215;-55
2022/10/30 04:11:41;;;;;;;11.53;7.50;;;;;;;8.84;95.53;100042.09;5079013;28;20225;-57
2022/10/30 04:14:08;;;;;;;7.67;6.90;;;;;;;8.80;96.75;100037.00;5090095;28;20245;-58
2022/10/30 04:16:35;;;;;;;8.87;6.63;;;;;;;8.80;95.79;100043.03;5090118;28;20235;-58
2022/10/30 04:19:02;;;;;;;12.60;7.20;;;;;;;8.79;96.07;100035.28;5090080;28;20702;-57
2022/10/30 04:21:30;;;;;;;9.23;7.17;;;;;;;8.92;95.69;100049.75;5089640;28;20616;-58
2022/10/30 04:23:57;;;;;;;10.53;7.40;;;;;;;8.93;95.64;100036.78;5089143;28;20209;-57
2022/10/30 04:26:24;;;;;;;14.53;8.20;;;;;;;8.94;95.08;100041.09;5090025;28;20210;-57
2022/10/30 04:28:51;;;;;;;13.07;7.73;;;;;;;8.98;95.26;100044.50;5090151;28;20660;-58
2022/10/30 04:31:18;;;;;;;11.13;7.87;;;;;;;9.08;94.74;100046.94;5089942;28;20213;-57
2022/10/30 04:33:45;;;;;;;9.43;7.00;;;;;;;9.16;93.60;100046.81;5089870;28;20290;-57
2022/10/30 04:36:12;;;;;;;13.53;7.90;;;;;;;9.10;94.16;100037.41;5090070;28;20190;-57
2022/10/30 04:38:40;;;;;;;10.83;6.97;;;;;;;9.03;94.82;100029.72;5089861;28;20249;-57
2022/10/30 04:41:07;;;;;;;11.00;7.30;;;;;;;9.05;94.53;100039.19;5087247;28;20226;-58
2022/10/30 04:43:34;;;;;;;13.67;6.10;;;;;;;9.08;93.82;100046.94;5089668;28;20581;-57
2022/10/30 04:46:04;;;;;;;7.67;6.43;;;;;;;9.08;94.45;100046.06;5088503;28;20261;-58
2022/10/30 04:48:33;;;;;;;7.37;6.23;;;;;;;9.07;93.71;100050.41;5088398;28;20659;-58
2022/10/30 04:51:00;;;;;;;8.13;6.83;;;;;;;9.13;94.26;100056.38;5088775;28;20198;-57
2022/10/30 04:53:27;;;;;;;10.57;6.10;;;;;;;9.08;93.79;100044.34;5089594;28;20735;-58
2022/10/30 04:55:55;;;;;;;7.00;6.37;;;;;;;9.16;94.02;100059.75;5089764;28;20282;-58
2022/10/30 04:58:22;;;;;;;9.50;5.93;;;;;;;9.20;93.46;100055.41;5086044;28;20218;-58
2022/10/30 05:00:49;;;;;;;6.97;6.30;;;;;;;9.20;93.17;100056.25;5069317;28;20242;-57
2022/10/30 05:03:20;;;;;;;8.87;6.10;;;;;;;9.18;92.47;100051.97;5069648;28;20261;-58
2022/10/30 05:05:47;;;;;;;10.33;6.00;;;;;;;9.17;92.27;100051.13;5069223;28;20196;-58
2022/10/30 05:08:14;;;;;;;12.27;6.17;;;;;;;9.05;92.82;100051.28;5069517;28;20196;-57
2022/10/30 05:10:41;;;;;;;13.83;7.10;;;;;;;9.01;93.42;100054.81;5069578;28;20214;-57
2022/10/30 05:13:11;;;;;;;8.83;6.50;;;;;;;9.09;92.75;100056.41;5076951;28;20217;-58
2022/10/30 05:15:38;;;;;;;7.80;6.43;;;;;;;9.23;92.58;100050.19;5078244;28;20191;-57
2022/10/30 05:18:05;;;;;;;7.60;6.83;;;;;;;9.20;91.75;100038.13;5077204;28;20769;-57
2022/10/30 05:20:32;;;;;;;11.97;7.63;;;;;;;9.27;92.59;100046.66;5071402;28;20208;-58
2022/10/30 05:22:59;;;;;;;8.20;6.67;;;;;;;9.33;91.52;100038.81;5076739;28;20674;-58
2022/10/30 05:25:27;;;;;;;7.83;7.03;;;;;;;9.38;91.38;100044.75;5078501;28;20198;-57
2022/10/30 05:27:58;;;;;;;7.90;7.00;;;;;;;9.54;89.97;100047.97;5077835;28;20586;-57
2022/10/30 05:30:26;;;;;;;8.90;7.23;;;;;;;9.67;89.25;100052.94;5077247;28;20195;-56
2022/10/30 05:32:58;;;;;;;12.13;7.10;;;;;;;9.72;88.35;100052.84;5078243;28;20690;-57
2022/10/30 05:35:25;;;;;;;15.70;7.17;;;;;;;9.50;88.63;100043.69;5088283;28;20713;-57
2022/10/30 05:37:52;;;;;;;7.80;7.00;;;;;;;9.69;89.05;100058.09;5088567;28;20205;-57
2022/10/30 05:40:19;;;;;;;11.57;7.03;;;;;;;9.82;87.98;100068.22;5088246;28;20341;-57
2022/10/30 05:42:46;;;;;;;9.10;7.77;;;;;;;9.81;89.08;100066.53;5089425;28;20282;-57
2022/10/30 05:45:13;;;;;;;9.70;8.03;;;;;;;10.20;87.16;100064.13;5092615;28;20210;-57
2022/10/30 05:47:41;;;;;;;15.83;7.87;;;;;;;12.10;78.89;100065.06;5092724;28;20199;-58
2022/10/30 05:50:10;;;;;;;13.63;7.73;;;;;;;14.34;65.05;100063.38;5092440;28;20205;-58
2022/10/30 05:52:37;;;;;;;8.80;6.93;;;;;;;16.43;57.15;100083.03;5092375;28;20211;-58
2022/10/30 05:55:04;;;;;;;8.00;7.30;;;;;;;18.47;48.97;100089.84;5092295;28;20203;-57
2022/10/30 05:57:32;;;;;;;16.87;11.30;;;;;;;20.35;44.45;100093.41;5092257;28;20199;-58
2022/10/30 05:59:59;;;;;;;24.02;16.42;;;;;;;21.43;40.80;100078.78;5091853;28;20234;-57
2022/10/30 06:02:26;;;;;;;8.05;7.25;;;;;;;23.08;37.03;100092.22;5092046;28;20671;-59
2022/10/30 06:04:54;;;;;;;7.45;6.57;;;;;;;23.78;35.78;100095.94;5090233;28;20199;-60
2022/10/30 06:07:21;;;;;;;6.95;6.35;;;;;;;23.81;34.99;100097.53;5071962;28;20211;-54
2022/10/30 06:09:48;;;;;;;14.85;13.50;;;;;;;22.41;36.36;100089.81;5079324;28;20215;-56
2022/10/30 06:12:15;;;;;;;9.40;8.60;;;;;;;20.87;39.37;100085.81;5089578;28;20200;-57
2022/10/30 06:14:42;;;;;;;9.63;8.10;;;;;;;19.60;41.91;100081.09;5072411;28;20204;-59
2022/10/30 06:17:09;;;;;;;10.05;8.38;;;;;;;18.30;44.70;100071.47;5086413;28;20203;-60
2022/10/30 06:19:36;;;;;;;7.68;6.60;;;;;;;17.45;47.51;100074.88;5092575;28;20230;-59
2022/10/30 06:22:04;;;;;;;8.10;7.10;;;;;;;16.71;49.46;100072.19;5092625;28;20685;-59
2022/10/30 06:24:31;;;;;;;11.30;7.53;;;;;;;16.18;51.40;100074.50;5092480;28;20192;-58
2022/10/30 06:26:58;;;;;;;8.32;6.30;;;;;;;15.82;52.74;100067.28;5092299;28;20294;-62
2022/10/30 06:29:25;;;;;;;9.10;6.67;;;;;;;15.64;53.96;100073.28;5092648;28;20196;-62
2022/10/30 06:31:52;;;;;;;10.27;7.50;;;;;;;15.45;54.45;100074.91;5085574;28;20202;-59
2022/10/30 06:34:19;;;;;;;11.17;8.90;;;;;;;15.33;54.61;100078.00;5090574;28;20191;-62
2022/10/30 06:36:46;;;;;;;8.10;7.30;;;;;;;15.07;54.73;100061.56;5085951;28;20576;-58
2022/10/30 06:39:14;;;;;;;8.00;7.23;;;;;;;14.83;56.01;100065.94;5071532;28;20242;-60
2022/10/30 06:41:41;;;;;;;9.93;7.60;;;;;;;14.47;57.05;100049.88;5071677;28;20293;-60
2022/10/30 06:44:08;;;;;;;10.03;8.33;;;;;;;14.44;57.86;100055.22;5070692;28;20204;-60
2022/10/30 06:46:35;;;;;;;9.50;8.47;;;;;;;14.61;57.70;100056.34;5071648;28;20283;-61
2022/10/30 06:49:02;;;;;;;10.03;7.30;;;;;;;14.74;57.25;100050.63;5071698;28;20589;-60
2022/10/30 06:51:29;;;;;;;7.83;7.10;;;;;;;14.84;56.84;100044.13;5071288;28;20701;-61
2022/10/30 06:53:55;;;;;;;15.00;7.50;;;;;;;15.00;56.33;100046.19;5070854;28;20283;-61
2022/10/30 06:56:24;;;;;;;11.03;8.67;;;;;;;15.02;56.51;100049.56;5070964;28;20279;-60
2022/10/30 06:58:51;;;;;;;8.40;6.57;;;;;;;15.20;55.45;100057.56;5071714;28;20579;-60
2022/10/30 07:01:18;;;;;;;8.33;7.47;;;;;;;15.37;55.16;100050.81;5071761;28;20585;-59
2022/10/30 07:03:44;;;;;;;9.33;7.90;;;;;;;15.54;54.41;100061.47;5071592;28;20203;-59
2022/10/30 07:06:11;;;;;;;13.43;9.00;;;;;;;15.62;53.99;100059.41;5091511;28;20675;-60
2022/10/30 07:08:38;;;;;;;8.43;7.57;;;;;;;15.73;53.66;100051.97;5091949;28;20210;-60
2022/10/30 07:11:05;;;;;;;12.90;7.00;;;;;;;15.71;53.35;100026.75;5091783;28;20194;-62
2022/10/30 07:13:34;;;;;;;7.70;5.60;;;;;;;15.78;53.38;100054.41;5091607;28;20195;-59
2022/10/30 07:16:00;;;;;;;9.67;6.77;;;;;;;15.81;53.54;100049.88;5091587;28;20191;-59
2022/10/30 07:18:27;;;;;;;9.43;6.53;;;;;;;15.87;53.38;100059.25;5091349;28;20290;-59
2022/10/30 07:20:55;;;;;;;8.30;5.90;;;;;;;15.91;53.50;100056.41;5090775;28;20223;-59
2022/10/30 07:23:22;;;;;;;6.83;5.93;;;;;;;15.71;54.05;100050.31;5074260;28;20587;-60
2022/10/30 07:25:49;;;;;;;8.43;5.93;;;;;;;15.54;54.34;100046.66;5091234;28;20287;-60
2022/10/30 07:28:16;;;;;;;7.67;6.37;;;;;;;15.64;54.80;100031.41;5091407;28;20234;-60
2022/10/30 07:30:44;;;;;;;6.83;6.23;;;;;;;15.54;54.84;100032.69;5091461;28;20249;-60
2022/10/30 07:33:11;;;;;;;9.87;7.27;;;;;;;15.65;55.20;100020.03;5091085;28;20590;-59
2022/10/30 07:35:38;;;;;;;10.87;7.53;;;;;;;15.72;55.14;100026.72;5091121;28;20291;-60
2022/10/30 07:38:07;;;;;;;12.70;7.60;;;;;;;15.75;54.74;100020.50;5091326;28;20592;-59
2022/10/30 07:40:35;;;;;;;10.53;7.23;;;;;;;15.72;55.38;100023.22;5090972;28;20241;-59
2022/10/30 07:43:02;;;;;;;13.77;7.47;;;;;;;15.60;55.83;100001.03;5091287;28;20608;-60
2022/10/30 07:45:30;;;;;;;9.13;7.37;;;;;;;15.65;56.60;100017.41;5090909;28;20199;-59
2022/10/30 07:47:58;;;;;;;7.80;7.03;;;;;;;15.65;56.60;100017.41;5091021;28;20214;-59
2022/10/30 07:50:25;;;;;;;8.27;7.37;;;;;;;15.60;57.46;100012.38;5090822;28;20191;-59
2022/10/30 07:52:52;;;;;;;7.67;6.50;;;;;;;15.42;58.49;100009.63;5090753;28;20202;-59
2022/10/30 07:55:19;;;;;;;10.97;7.17;;;;;;;15.43;58.70;100006.09;5091248;28;20586;-59
2022/10/30 07:57:46;;;;;;;7.93;7.23;;;;;;;15.43;59.18;100003.47;5090949;28;20205;-61
2022/10/30 08:00:14;;;;;;;9.07;6.77;;;;;;;15.44;58.97;99999.97;5090479;28;20315;-59
2022/10/30 08:02:42;;;;;;;7.83;6.93;;;;;;;15.46;59.51;99992.91;5090440;28;20202;-62
2022/10/30 08:05:10;;;;;;;8.40;7.57;;;;;;;15.51;59.36;99993.53;5087477;28;20616;-62
2022/10/30 08:07:38;;;;;;;11.33;7.17;;;;;;;15.56;59.40;99992.50;5090216;28;20259;-60
2022/10/30 08:10:07;;;;;;;8.43;7.47;;;;;;;15.61;59.59;99987.91;5090553;28;20264;-59
2022/10/30 08:12:35;;;;;;;10.90;8.03;;;;;;;15.56;60.11;99986.41;5090109;28;20246;-58
2022/10/30 08:15:02;;;;;;;7.17;6.67;;;;;;;15.64;59.70;99973.84;5090100;28;20615;-61
2022/10/30 08:17:29;;;;;;;16.63;8.20;;;;;;;15.75;59.56;99974.25;5089647;28;20253;-62
2022/10/30 08:19:56;;;;;;;11.83;7.90;;;;;;;15.81;59.22;99966.09;5089801;28;20233;-62
2022/10/30 08:22:25;;;;;;;9.03;7.60;;;;;;;15.93;59.24;99968.19;5089725;28;20292;-62
2022/10/30 08:24:52;;;;;;;10.97;7.07;;;;;;;16.06;60.09;99965.06;5088839;28;20620;-62
2022/10/30 08:27:19;;;;;;;9.93;7.13;;;;;;;16.19;60.57;99955.75;5088808;28;20210;-61
2022/10/30 08:29:46;;;;;;;11.43;9.00;;;;;;;16.22;60.00;99939.91;5088272;28;20206;-61
2022/10/30 08:32:13;;;;;;;11.00;8.80;;;;;;;16.44;58.50;99947.63;5089426;28;20203;-59
2022/10/30 08:34:40;;;;;;;11.93;8.87;;;;;;;16.52;57.97;99954.19;5089531;28;20195;-59
2022/10/30 08:37:07;;;;;;;8.40;7.30;;;;;;;16.56;57.98;99937.44;5089398;28;20259;-61
2022/10/30 08:39:35;;;;;;;10.00;7.50;;;;;;;16.74;57.64;99953.22;5089241;28;20231;-61
2022/10/30 08:42:02;;;;;;;7.83;6.93;;;;;;;16.82;56.76;99953.72;5089780;28;20191;-61
2022/10/30 08:44:29;;;;;;;7.77;6.97;;;;;;;16.91;56.34;99950.69;5089751;28;20603;-61
2022/10/30 08:46:56;;;;;;;9.23;6.20;;;;;;;16.94;56.05;99956.59;5090083;28;20195;-61
2022/10/30 08:49:23;;;;;;;6.80;6.20;;;;;;;16.97;56.36;99953.84;5090239;28;20237;-62
2022/10/30 08:51:50;;;;;;;12.97;6.70;;;;;;;17.10;56.40;99950.63;5089701;28;20245;-62
2022/10/30 08:54:17;;;;;;;6.80;6.13;;;;;;;17.32;58.58;99946.88;5089824;28;20206;-62
2022/10/30 08:56:45;;;;;;;14.73;7.00;;;;;;;17.48;55.56;99951.38;5089756;28;20199;-61
2022/10/30 08:59:12;;;;;;;10.23;5.43;;;;;;;17.59;54.74;99943.81;5089643;28;20199;-60
2022/10/30 09:01:39;;;;;;;8.67;5.40;;;;;;;17.75;54.12;99944.75;5089749;28;20226;-61
2022/10/30 09:04:06;;;;;;;7.07;5.22;;;;;;;17.80;53.41;99934.88;5089403;28;20227;-61
2022/10/30 09:06:33;;;;;;;6.47;5.03;;;;;;;17.91;53.53;99936.94;5089626;28;20206;-59
2022/10/30 09:09:00;;;;;;;9.27;5.50;;;;;;;17.99;53.33;99938.22;5089594;28;20589;-60
2022/10/30 09:11:26;;;;;;;5.47;5.07;;;;;;;18.09;52.83;99933.31;5089793;28;20199;-60
2022/10/30 09:13:55;;;;;;;8.73;6.25;;;;;;;18.23;52.21;99929.97;5089493;28;20202;-61
2022/10/30 09:16:22;;;;;;;5.82;4.93;;;;;;;18.31;52.09;99926.00;5088943;28;20671;-62
2022/10/30 09:18:49;;;;;;;5.68;5.18;;;;;;;18.38;52.43;99919.50;5091545;28;20206;-61
2022/10/30 09:21:15;;;;;;;9.25;5.05;;;;;;;18.47;51.36;99923.41;5092963;28;20325;-60
2022/10/30 09:23:43;;;;;;;11.02;5.28;;;;;;;18.57;50.25;99908.81;5093716;28;20282;-59
2022/10/30 09:26:10;;;;;;;7.43;5.10;;;;;;;18.63;49.77;99905.88;5093271;28;20195;-65
2022/10/30 09:28:37;;;;;;;7.10;4.82;;;;;;;18.59;49.47;99899.09;5093684;28;20195;-65
2022/10/30 09:31:06;;;;;;;7.30;4.50;;;;;;;18.65;49.34;99900.53;5093523;28;20191;-65
2022/10/30 09:33:33;;;;;;;5.20;4.22;;;;;;;18.73;49.44;99896.56;5093547;28;20195;-65
2022/10/30 09:36:01;;;;;;;6.55;4.43;;;;;;;18.86;48.98;99889.63;5093282;28;20195;-63
2022/10/30 09:38:28;;;;;;;4.78;4.30;;;;;;;18.88;48.41;99891.34;5093395;28;20241;-65
2022/10/30 09:41:13;;;;;;;8.00;4.35;;;;;;;18.92;48.48;99885.84;5093400;28;20222;-61
2022/10/30 09:43:53;;;;;;;4.20;3.80;;;;;;;18.96;48.36;99884.69;5091944;28;20207;-62
2022/10/30 09:46:34;;;;;;;3.75;3.55;;;;;;;19.02;48.16;99879.09;5093497;28;20270;-61
2022/10/30 09:49:24;;;;;;;24.65;4.57;;;;;;;19.15;46.80;99876.59;5093126;28;20573;-61
2022/10/30 09:52:17;;;;;;;4.00;3.70;;;;;;;19.24;47.10;99870.81;5093185;28;20576;-61
2022/10/30 09:54:56;;;;;;;4.85;3.83;;;;;;;19.30;46.31;99869.63;5072327;28;20340;-60
2022/10/30 09:57:33;;;;;;;6.93;3.95;;;;;;;19.39;45.60;99862.00;5072776;28;20235;-61
2022/10/30 10:00:09;;;;;;;4.10;3.45;;;;;;;19.50;45.22;99859.63;5089902;28;20309;-60
2022/10/30 10:02:41;;;;;;;6.28;3.78;;;;;;;19.55;45.21;99857.53;5093052;28;20627;-60
2022/10/30 10:05:17;;;;;;;3.72;3.42;;;;;;;19.63;44.36;99853.63;5092026;28;20314;-60
2022/10/30 10:07:48;;;;;;;4.55;4.15;;;;;;;19.68;44.37;99852.38;5091699;28;20297;-61
2022/10/30 10:10:22;;;;;;;4.70;3.70;;;;;;;19.74;44.15;99846.75;5090058;28;20432;-64
2022/10/30 10:12:51;;;;;;;15.95;4.05;;;;;;;19.81;43.64;99845.44;5092224;28;20440;-59
2022/10/30 10:15:29;;;;;;;4.97;3.90;;;;;;;19.93;43.31;99847.31;5092218;28;20230;-61
2022/10/30 10:18:01;;;;;;;4.75;4.35;;;;;;;19.97;42.77;99837.44;5092630;28;20213;-61
2022/10/30 10:20:32;;;;;;;6.38;5.32;;;;;;;20.05;42.58;99836.94;5092541;28;20234;-61
2022/10/30 10:23:02;;;;;;;5.50;5.10;;;;;;;20.11;42.12;99832.13;5092819;28;20199;-62
2022/10/30 10:25:31;;;;;;;7.68;5.13;;;;;;;20.18;41.97;99829.97;5086111;28;20223;-65
2022/10/30 10:28:13;;;;;;;10.45;5.65;;;;;;;20.24;41.75;99819.88;5077273;28;20300;-62
2022/10/30 10:30:50;;;;;;;10.50;6.28;;;;;;;20.31;41.36;99812.44;5072189;28;20196;-65
2022/10/30 10:33:38;;;;;;;14.13;7.03;;;;;;;20.41;41.24;99812.72;5072470;28;20214;-65
2022/10/30 10:36:12;;;;;;;8.13;6.97;;;;;;;20.46;41.50;99811.47;5072202;28;20207;-62
2022/10/30 10:38:56;;;;;;;10.52;9.43;;;;;;;20.52;41.31;99802.31;5079118;28;20621;-61
2022/10/30 10:41:32;;;;;;;15.32;10.73;;;;;;;20.58;40.39;99797.47;5079728;28;20218;-61
2022/10/30 10:44:11;;;;;;;18.55;9.15;;;;;;;20.67;40.25;99793.38;5083125;28;20188;-61
2022/10/30 10:47:02;;;;;;;9.48;8.68;;;;;;;20.72;40.03;99785.19;5086487;28;20149;-61
2022/10/30 10:49:45;;;;;;;18.58;9.75;;;;;;;20.78;40.46;99785.59;5092123;28;25108;-61
2022/10/30 10:52:16;;;;;;;11.90;8.82;;;;;;;20.83;40.05;99786.16;5092164;28;20202;-61
2022/10/30 10:54:46;;;;;;;12.23;8.82;;;;;;;20.87;39.51;99777.09;5092688;28;20189;-61
2022/10/30 10:57:23;;;;;;;10.05;9.05;;;;;;;20.92;39.62;99764.44;5092405;28;20209;-62
2022/10/30 10:59:54;;;;;;;5.85;5.18;;;;;;;21.05;38.92;99768.88;5092295;28;20154;-61
2022/10/30 11:02:41;;;;;;;8.10;6.05;;;;;;;21.16;38.72;99769.00;5092179;28;20243;-62
2022/10/30 11:05:21;;;;;;;13.25;7.38;;;;;;;21.23;38.81;99759.72;5092650;28;20764;-62
2022/10/30 11:07:50;;;;;;;6.25;5.38;;;;;;;21.29;38.43;99759.31;5092481;28;20203;-61
2022/10/30 11:10:19;;;;;;;7.13;4.32;;;;;;;21.30;38.71;99753.09;5089324;28;20341;-60
2022/10/30 11:12:47;;;;;;;6.47;3.95;;;;;;;21.33;38.07;99758.16;5091831;28;20231;-63
2022/10/30 11:15:42;;;;;;;4.47;3.00;;;;;;;21.42;37.83;99754.88;5092136;28;20732;-62
2022/10/30 11:18:10;;;;;;;4.70;2.85;;;;;;;21.55;37.66;99746.94;5091713;28;20215;-62
2022/10/30 11:20:44;;;;;;;3.50;3.20;;;;;;;21.65;37.10;99748.84;5091991;28;20237;-61
2022/10/30 11:23:33;;;;;;;2.92;2.72;;;;;;;21.70;36.86;99744.03;5091274;28;20223;-61
2022/10/30 11:26:02;;;;;;;5.57;3.00;;;;;;;21.67;37.17;99740.81;5091900;28;20220;-61
2022/10/30 11:28:39;;;;;;;4.40;3.25;;;;;;;21.56;37.38;99723.03;5091514;28;20242;-62
2022/10/30 11:31:20;;;;;;;4.90;3.50;;;;;;;21.66;37.07;99734.66;5091896;28;20677;-62
2022/10/30 11:33:48;;;;;;;3.90;3.40;;;;;;;21.74;37.25;99727.03;5091878;28;20219;-66
2022/10/30 11:36:18;;;;;;;3.55;3.30;;;;;;;21.85;37.01;99723.63;5091049;28;20233;-66
2022/10/30 11:38:45;;;;;;;10.00;3.40;;;;;;;21.98;36.55;99723.59;5082931;28;20234;-62